createdAt,value
2019-02-28T00:00:14.204Z,64.43
2019-02-28T00:01:15.041Z,64.53
2019-02-28T00:02:14.227Z,64.53
2019-02-28T00:03:14.510Z,64.43
2019-02-28T00:04:14.260Z,64.53
2019-02-28T00:05:14.541Z,64.34
2019-02-28T00:06:15.000Z,64.43
2019-02-28T00:07:17.435Z,64.43
2019-02-28T00:08:14.600Z,64.53
2019-02-28T00:09:14.357Z,64.53
2019-02-28T00:10:14.372Z,64.62
2019-02-28T00:11:14.685Z,64.43
2019-02-28T00:12:16.692Z,64.62
2019-02-28T00:13:14.690Z,64.53
2019-02-28T00:14:14.445Z,64.53
2019-02-28T00:15:14.726Z,64.62
2019-02-28T00:16:14.487Z,64.53
2019-02-28T00:17:14.763Z,64.53
2019-02-28T00:18:17.622Z,64.43
2019-02-28T00:19:14.534Z,64.53
2019-02-28T00:20:14.818Z,64.43
2019-02-28T00:21:14.574Z,64.43
2019-02-28T00:22:16.928Z,64.24
2019-02-28T00:23:14.611Z,64.53
2019-02-28T00:24:14.893Z,64.53
2019-02-28T00:25:14.913Z,64.24
2019-02-28T00:26:14.927Z,64.53
2019-02-28T00:27:14.685Z,64.53
2019-02-28T00:28:14.703Z,64.43
2019-02-28T00:29:14.723Z,64.15
2019-02-28T00:30:14.745Z,64.05
2019-02-28T00:31:17.517Z,64.15
2019-02-28T00:32:14.775Z,64.15
2019-02-28T00:33:15.066Z,64.05
2019-02-28T00:34:14.812Z,64.15
2019-02-28T00:35:16.426Z,64.34
2019-02-28T00:36:16.275Z,64.24
2019-02-28T00:37:14.880Z,64.24
2019-02-28T00:38:14.888Z,64.24
2019-02-28T00:39:14.907Z,64.24
2019-02-28T00:40:14.928Z,64.24
2019-02-28T00:41:15.204Z,63.86
2019-02-28T00:42:20.036Z,64.15
2019-02-28T00:43:15.240Z,63.86
2019-02-28T00:44:14.996Z,63.57
2019-02-28T00:45:15.024Z,63.67
2019-02-28T00:46:15.035Z,63.57
2019-02-28T00:47:16.388Z,63.57
2019-02-28T00:48:18.190Z,63.86
2019-02-28T00:49:15.091Z,63.51
2019-02-28T00:50:15.114Z,63.8
2019-02-28T00:51:15.123Z,63.86
2019-02-28T00:52:15.145Z,63.8
2019-02-28T00:53:15.427Z,64.05
2019-02-28T00:54:15.445Z,63.89
2019-02-28T00:55:16.795Z,64.08
2019-02-28T00:56:17.499Z,64.05
2019-02-28T00:57:15.236Z,63.86
2019-02-28T00:58:15.255Z,63.89
2019-02-28T00:59:15.537Z,63.86
2019-02-28T01:00:15.574Z,63.89
2019-02-28T01:01:15.579Z,63.89
2019-02-28T01:02:17.562Z,63.76
2019-02-28T01:03:15.347Z,63.96
2019-02-28T01:04:15.628Z,63.89
2019-02-28T01:05:15.382Z,63.57
2019-02-28T01:06:15.405Z,63.96
2019-02-28T01:07:19.049Z,63.99
2019-02-28T01:08:15.705Z,63.99
2019-02-28T01:09:15.720Z,63.51
2019-02-28T01:10:15.477Z,63.57
2019-02-28T01:11:16.365Z,63.76
2019-02-28T01:12:21.390Z,63.8
2019-02-28T01:13:15.794Z,63.76
2019-02-28T01:14:15.549Z,63.51
2019-02-28T01:15:15.571Z,63.7
2019-02-28T01:16:19.289Z,63.76
2019-02-28T01:17:15.868Z,63.86
2019-02-28T01:18:15.624Z,63.42
2019-02-28T01:19:15.645Z,63.96
2019-02-28T01:20:18.659Z,63.29
2019-02-28T01:21:15.942Z,64.15
2019-02-28T01:22:15.962Z,63.96
2019-02-28T01:23:15.719Z,63.96
2019-02-28T01:24:15.740Z,64.05
2019-02-28T01:25:15.755Z,64.05
2019-02-28T01:26:15.774Z,63.48
2019-02-28T01:27:17.259Z,63.96
2019-02-28T01:28:16.071Z,63.57
2019-02-28T01:29:16.106Z,64.05
2019-02-28T01:30:16.123Z,64.05
2019-02-28T01:31:15.865Z,63.86
2019-02-28T01:32:18.748Z,64.05
2019-02-28T01:33:16.166Z,63.39
2019-02-28T01:34:15.921Z,63.39
2019-02-28T01:35:15.941Z,64.18
2019-02-28T01:36:18.393Z,64.05
2019-02-28T01:37:16.242Z,64.05
2019-02-28T01:38:16.058Z,63.96
2019-02-28T01:39:16.294Z,64.05
2019-02-28T01:40:16.033Z,64.05
2019-02-28T01:41:16.053Z,63.86
2019-02-28T01:42:21.866Z,63.96
2019-02-28T01:43:16.352Z,64.05
2019-02-28T01:44:16.373Z,64.15
2019-02-28T01:45:16.134Z,63.86
2019-02-28T01:46:19.234Z,63.86
2019-02-28T01:47:16.163Z,63.76
2019-02-28T01:48:16.450Z,63.86
2019-02-28T01:49:16.198Z,63.96
2019-02-28T01:50:16.481Z,63.96
2019-02-28T01:51:16.513Z,64.05
2019-02-28T01:52:16.255Z,63.76
2019-02-28T01:53:20.961Z,63.76
2019-02-28T01:54:16.292Z,64.05
2019-02-28T01:55:16.310Z,64.24
2019-02-28T01:56:16.588Z,63.76
2019-02-28T01:57:16.618Z,63.67
2019-02-28T01:58:18.945Z,63.86
2019-02-28T01:59:16.649Z,64.15
2019-02-28T02:00:16.400Z,64.15
2019-02-28T02:01:16.683Z,64.05
2019-02-28T02:02:16.704Z,63.76
2019-02-28T02:03:16.727Z,63.86
2019-02-28T02:04:16.741Z,63.86
2019-02-28T02:05:19.570Z,63.67
2019-02-28T02:06:16.517Z,63.67
2019-02-28T02:07:16.533Z,63.86
2019-02-28T02:08:16.548Z,63.86
2019-02-28T02:09:16.832Z,63.86
2019-02-28T02:10:17.519Z,63.76
2019-02-28T02:11:16.866Z,63.76
2019-02-28T02:12:16.626Z,63.76
2019-02-28T02:13:16.642Z,63.48
2019-02-28T02:14:16.661Z,63.57
2019-02-28T02:15:19.412Z,63.96
2019-02-28T02:16:16.961Z,64.05
2019-02-28T02:17:16.718Z,63.67
2019-02-28T02:18:16.997Z,63.57
2019-02-28T02:19:20.830Z,63.67
2019-02-28T02:20:16.772Z,63.67
2019-02-28T02:21:17.055Z,63.86
2019-02-28T02:22:16.807Z,63.67
2019-02-28T02:23:20.159Z,63.67
2019-02-28T02:24:17.111Z,63.67
2019-02-28T02:25:16.873Z,63.48
2019-02-28T02:26:16.882Z,63.57
2019-02-28T02:27:21.623Z,63.48
2019-02-28T02:28:17.185Z,63.67
2019-02-28T02:29:17.198Z,63.67
2019-02-28T02:30:18.298Z,63.67
2019-02-28T02:31:16.978Z,63.48
2019-02-28T02:32:16.997Z,63.67
2019-02-28T02:33:17.863Z,63.76
2019-02-28T02:34:17.295Z,63.86
2019-02-28T02:35:17.335Z,63.86
2019-02-28T02:36:18.872Z,63.96
2019-02-28T02:37:17.347Z,63.86
2019-02-28T02:38:17.368Z,64.05
2019-02-28T02:39:20.126Z,63.67
2019-02-28T02:40:17.197Z,63.76
2019-02-28T02:41:17.160Z,64.24
2019-02-28T02:42:17.444Z,64.15
2019-02-28T02:43:17.195Z,64.24
2019-02-28T02:44:17.220Z,64.05
2019-02-28T02:45:17.526Z,64.34
2019-02-28T02:46:22.512Z,64.05
2019-02-28T02:47:17.534Z,64.24
2019-02-28T02:48:17.296Z,64.15
2019-02-28T02:49:22.179Z,64.24
2019-02-28T02:50:17.603Z,64.24
2019-02-28T02:51:17.608Z,64.24
2019-02-28T02:52:17.623Z,64.15
2019-02-28T02:53:17.639Z,64.34
2019-02-28T02:54:22.465Z,64.15
2019-02-28T02:55:17.418Z,64.15
2019-02-28T02:56:17.436Z,63.96
2019-02-28T02:57:18.008Z,64.05
2019-02-28T02:58:17.472Z,64.15
2019-02-28T02:59:17.493Z,64.05
2019-02-28T03:00:17.879Z,64.34
2019-02-28T03:01:17.527Z,64.05
2019-02-28T03:02:17.549Z,64.05
2019-02-28T03:03:17.840Z,64.05
2019-02-28T03:04:23.997Z,64.05
2019-02-28T03:05:17.603Z,64.05
2019-02-28T03:06:17.883Z,64.15
2019-02-28T03:07:25.589Z,64.53
2019-02-28T03:08:17.654Z,64.53
2019-02-28T03:09:17.729Z,64.15
2019-02-28T03:10:20.242Z,64.34
2019-02-28T03:11:17.973Z,64.53
2019-02-28T03:12:17.996Z,64.34
2019-02-28T03:13:18.012Z,64.53
2019-02-28T03:14:19.786Z,64.53
2019-02-28T03:15:24.748Z,64.24
2019-02-28T03:16:17.837Z,64.24
2019-02-28T03:17:18.082Z,64.43
2019-02-28T03:18:22.777Z,64.53
2019-02-28T03:19:17.857Z,64.53
2019-02-28T03:20:18.015Z,64.53
2019-02-28T03:21:18.763Z,64.43
2019-02-28T03:22:17.912Z,64.43
2019-02-28T03:23:17.936Z,64.43
2019-02-28T03:24:18.648Z,64.43
2019-02-28T03:25:17.995Z,64.72
2019-02-28T03:26:18.025Z,64.43
2019-02-28T03:27:22.091Z,64.53
2019-02-28T03:28:18.293Z,64.53
2019-02-28T03:29:18.305Z,64.53
2019-02-28T03:30:32.607Z,64.53
2019-02-28T03:31:18.583Z,64.43
2019-02-28T03:32:18.126Z,64.53
2019-02-28T03:33:29.471Z,64.43
2019-02-28T03:34:18.473Z,64.34
2019-02-28T03:35:18.448Z,64.53
2019-02-28T03:36:19.365Z,64.53
2019-02-28T03:37:18.452Z,64.53
2019-02-28T03:38:18.474Z,64.53
2019-02-28T03:39:23.988Z,64.53
2019-02-28T03:40:18.568Z,64.43
2019-02-28T03:41:20.218Z,64.34
2019-02-28T03:42:18.395Z,64.24
2019-02-28T03:43:18.574Z,64.24
2019-02-28T03:44:23.849Z,64.43
2019-02-28T03:45:18.429Z,64.24
2019-02-28T03:46:18.352Z,64.24
2019-02-28T03:47:25.247Z,64.43
2019-02-28T03:48:18.389Z,64.24
2019-02-28T03:49:18.671Z,64.34
2019-02-28T03:50:21.847Z,64.15
2019-02-28T03:51:18.711Z,64.24
2019-02-28T03:52:18.723Z,64.34
2019-02-28T03:53:23.170Z,64.24
2019-02-28T03:54:18.509Z,64.43
2019-02-28T03:55:18.533Z,64.05
2019-02-28T03:56:18.813Z,64.15
2019-02-28T03:57:18.816Z,64.15
2019-02-28T03:58:18.834Z,64.05
2019-02-28T03:59:22.363Z,64.53
2019-02-28T04:00:18.883Z,64.53
2019-02-28T04:01:18.893Z,64.43
2019-02-28T04:02:23.572Z,64.62
2019-02-28T04:03:18.939Z,64.72
2019-02-28T04:04:18.953Z,65.1
2019-02-28T04:05:26.392Z,64.9
2019-02-28T04:06:18.723Z,64.9
2019-02-28T04:07:19.301Z,64.9
2019-02-28T04:08:18.752Z,64.62
2019-02-28T04:09:19.035Z,64.9
2019-02-28T04:10:24.675Z,64.9
2019-02-28T04:11:19.078Z,65
2019-02-28T04:12:19.087Z,64.81
2019-02-28T04:13:21.848Z,64.9
2019-02-28T04:14:18.865Z,64.62
2019-02-28T04:15:18.878Z,64.9
2019-02-28T04:16:18.900Z,64.9
2019-02-28T04:17:18.923Z,64.9
2019-02-28T04:18:19.250Z,64.81
2019-02-28T04:19:23.887Z,64.9
2019-02-28T04:20:19.239Z,64.9
2019-02-28T04:21:19.029Z,64.72
2019-02-28T04:22:24.850Z,65.1
2019-02-28T04:23:19.025Z,65.1
2019-02-28T04:24:19.406Z,64.72
2019-02-28T04:25:24.883Z,64.9
2019-02-28T04:26:19.078Z,64.9
2019-02-28T04:27:19.099Z,64.9
2019-02-28T04:28:21.336Z,65.1
2019-02-28T04:29:19.396Z,65.1
2019-02-28T04:30:19.440Z,65.1
2019-02-28T04:31:22.538Z,64.9
2019-02-28T04:32:19.190Z,64.81
2019-02-28T04:33:19.505Z,64.81
2019-02-28T04:34:19.493Z,64.9
2019-02-28T04:35:23.886Z,65
2019-02-28T04:36:19.531Z,65
2019-02-28T04:37:19.277Z,64.9
2019-02-28T04:38:22.793Z,64.9
2019-02-28T04:39:22.727Z,64.9
2019-02-28T04:40:19.596Z,65
2019-02-28T04:41:19.348Z,64.9
2019-02-28T04:42:19.368Z,65.1
2019-02-28T04:43:19.654Z,64.9
2019-02-28T04:44:21.368Z,64.9
2019-02-28T04:45:19.425Z,65.38
2019-02-28T04:46:19.703Z,65.38
2019-02-28T04:47:19.724Z,65.19
2019-02-28T04:48:19.475Z,65.16
2019-02-28T04:49:24.057Z,65.35
2019-02-28T04:50:19.779Z,64.87
2019-02-28T04:51:19.793Z,65.1
2019-02-28T04:52:19.548Z,65.06
2019-02-28T04:53:21.612Z,65.35
2019-02-28T04:54:19.846Z,65.35
2019-02-28T04:55:19.866Z,65.45
2019-02-28T04:56:19.635Z,65.25
2019-02-28T04:57:23.146Z,65.06
2019-02-28T04:58:22.297Z,65.38
2019-02-28T04:59:19.937Z,65.16
2019-02-28T05:00:19.958Z,64.87
2019-02-28T05:01:19.721Z,65.06
2019-02-28T05:02:22.746Z,65.16
2019-02-28T05:03:20.024Z,65.35
2019-02-28T05:04:20.029Z,65.25
2019-02-28T05:05:19.782Z,65.16
2019-02-28T05:06:22.999Z,65.25
2019-02-28T05:07:20.084Z,65.16
2019-02-28T05:08:20.101Z,65.16
2019-02-28T05:09:19.860Z,65.35
2019-02-28T05:10:23.981Z,65.16
2019-02-28T05:11:20.164Z,65.06
2019-02-28T05:12:20.172Z,65.54
2019-02-28T05:13:20.197Z,65.54
2019-02-28T05:14:25.962Z,65.16
2019-02-28T05:15:19.965Z,65.45
2019-02-28T05:16:20.261Z,65.06
2019-02-28T05:17:24.216Z,65.35
2019-02-28T05:18:20.022Z,65.45
2019-02-28T05:19:20.301Z,65.45
2019-02-28T05:20:20.056Z,65.45
2019-02-28T05:21:22.021Z,65.54
2019-02-28T05:22:20.091Z,65.35
2019-02-28T05:23:20.108Z,65.35
2019-02-28T05:24:20.392Z,65.25
2019-02-28T05:25:20.996Z,65.64
2019-02-28T05:26:20.165Z,65.73
2019-02-28T05:27:20.196Z,65.64
2019-02-28T05:28:20.204Z,65.25
2019-02-28T05:29:20.220Z,65.73
2019-02-28T05:30:22.187Z,65.83
2019-02-28T05:31:20.530Z,65.83
2019-02-28T05:32:20.535Z,65.73
2019-02-28T05:33:20.293Z,65.92
2019-02-28T05:34:20.310Z,65.45
2019-02-28T05:35:25.096Z,65.54
2019-02-28T05:36:20.611Z,65.73
2019-02-28T05:37:20.364Z,65.54
2019-02-28T05:38:23.546Z,65.54
2019-02-28T05:39:20.418Z,65.83
2019-02-28T05:40:20.680Z,65.54
2019-02-28T05:41:20.714Z,65.83
2019-02-28T05:42:25.407Z,65.83
2019-02-28T05:43:20.748Z,65.83
2019-02-28T05:44:21.330Z,65.92
2019-02-28T05:45:20.773Z,65.64
2019-02-28T05:46:25.551Z,65.54
2019-02-28T05:47:20.824Z,65.73
2019-02-28T05:48:20.829Z,65.73
2019-02-28T05:49:20.594Z,65.54
2019-02-28T05:50:20.602Z,65.83
2019-02-28T05:51:20.619Z,65.73
2019-02-28T05:52:20.898Z,65.92
2019-02-28T05:53:20.920Z,66.02
2019-02-28T05:54:20.958Z,65.92
2019-02-28T05:55:27.098Z,65.83
2019-02-28T05:56:20.968Z,65.73
2019-02-28T05:57:20.990Z,65.64
2019-02-28T05:58:23.275Z,65.83
2019-02-28T05:59:25.963Z,65.83
2019-02-28T06:00:20.784Z,65.73
2019-02-28T06:01:20.797Z,65.73
2019-02-28T06:02:25.637Z,65.45
2019-02-28T06:03:20.837Z,65.92
2019-02-28T06:04:20.856Z,65.45
2019-02-28T06:05:21.132Z,65.45
2019-02-28T06:06:23.317Z,65.64
2019-02-28T06:07:21.168Z,65.45
2019-02-28T06:08:21.187Z,65.45
2019-02-28T06:09:20.938Z,65.45
2019-02-28T06:10:26.048Z,65.35
2019-02-28T06:11:20.978Z,65.64
2019-02-28T06:12:20.995Z,65.45
2019-02-28T06:13:21.161Z,65.54
2019-02-28T06:14:26.453Z,65.45
2019-02-28T06:15:21.312Z,65.64
2019-02-28T06:16:21.070Z,65.64
2019-02-28T06:17:23.803Z,65.64
2019-02-28T06:18:21.365Z,65.45
2019-02-28T06:19:22.577Z,65.45
2019-02-28T06:20:21.409Z,65.35
2019-02-28T06:21:23.333Z,65.35
2019-02-28T06:22:21.447Z,65.54
2019-02-28T06:23:21.193Z,65.45
2019-02-28T06:24:21.221Z,65.45
2019-02-28T06:25:27.461Z,65.35
2019-02-28T06:26:21.247Z,65.25
2019-02-28T06:27:21.265Z,65.54
2019-02-28T06:28:21.546Z,65.64
2019-02-28T06:29:21.562Z,65.64
2019-02-28T06:30:21.687Z,65.35
2019-02-28T06:31:21.435Z,65.35
2019-02-28T06:32:27.367Z,65.64
2019-02-28T06:33:23.805Z,65.54
2019-02-28T06:34:21.672Z,65.45
2019-02-28T06:35:22.952Z,65.64
2019-02-28T06:36:21.427Z,65.45
2019-02-28T06:37:23.374Z,65.64
2019-02-28T06:38:22.087Z,65.64
2019-02-28T06:39:21.482Z,65.64
2019-02-28T06:40:21.502Z,65.45
2019-02-28T06:41:21.522Z,65.73
2019-02-28T06:42:21.802Z,65.73
2019-02-28T06:43:21.808Z,65.73
2019-02-28T06:44:24.166Z,65.73
2019-02-28T06:45:21.592Z,65.73
2019-02-28T06:46:21.609Z,65.64
2019-02-28T06:47:21.929Z,65.83
2019-02-28T06:48:26.728Z,65.73
2019-02-28T06:49:21.928Z,65.64
2019-02-28T06:50:21.680Z,65.64
2019-02-28T06:51:21.698Z,65.73
2019-02-28T06:52:25.188Z,65.83
2019-02-28T06:53:21.738Z,65.64
2019-02-28T06:54:21.755Z,65.64
2019-02-28T06:55:22.042Z,65.73
2019-02-28T06:56:25.563Z,65.73
2019-02-28T06:57:22.070Z,65.54
2019-02-28T06:58:21.827Z,65.64
2019-02-28T06:59:22.137Z,65.64
2019-02-28T07:00:22.125Z,65.54
2019-02-28T07:01:25.366Z,65.54
2019-02-28T07:02:21.895Z,65.73
2019-02-28T07:03:21.920Z,65.64
2019-02-28T07:04:21.932Z,65.54
2019-02-28T07:05:26.972Z,65.54
2019-02-28T07:06:22.241Z,65.73
2019-02-28T07:07:22.251Z,65.54
2019-02-28T07:08:28.947Z,65.54
2019-02-28T07:09:22.025Z,65.73
2019-02-28T07:10:22.399Z,65.83
2019-02-28T07:11:22.947Z,65.83
2019-02-28T07:12:22.339Z,65.54
2019-02-28T07:13:22.360Z,65.73
2019-02-28T07:14:22.376Z,65.83
2019-02-28T07:15:25.944Z,65.73
2019-02-28T07:16:22.167Z,65.35
2019-02-28T07:17:22.178Z,65.45
2019-02-28T07:18:22.232Z,65.54
2019-02-28T07:19:22.472Z,65.45
2019-02-28T07:20:22.485Z,65.45
2019-02-28T07:21:22.241Z,65.35
2019-02-28T07:22:23.177Z,65.54
2019-02-28T07:23:26.640Z,65.35
2019-02-28T07:24:22.300Z,65.16
2019-02-28T07:25:22.316Z,65.06
2019-02-28T07:26:22.337Z,65.45
2019-02-28T07:27:23.304Z,65.16
2019-02-28T07:28:22.642Z,65.16
2019-02-28T07:29:22.388Z,65.16
2019-02-28T07:30:22.414Z,65.35
2019-02-28T07:31:26.497Z,65.19
2019-02-28T07:32:22.447Z,65.25
2019-02-28T07:33:22.726Z,65.35
2019-02-28T07:34:26.084Z,65.35
2019-02-28T07:35:22.500Z,65.16
2019-02-28T07:36:22.515Z,65.29
2019-02-28T07:37:22.553Z,65.54
2019-02-28T07:38:25.533Z,65.38
2019-02-28T07:39:22.591Z,65.48
2019-02-28T07:40:22.596Z,65.58
2019-02-28T07:41:28.691Z,65.06
2019-02-28T07:42:22.627Z,65.45
2019-02-28T07:43:22.909Z,65.48
2019-02-28T07:44:24.695Z,65.54
2019-02-28T07:45:22.945Z,65.48
2019-02-28T07:46:24.694Z,65.1
2019-02-28T07:47:22.986Z,65.48
2019-02-28T07:48:30.069Z,65.48
2019-02-28T07:49:25.585Z,65.29
2019-02-28T07:50:22.775Z,65.58
2019-02-28T07:51:26.540Z,65.48
2019-02-28T07:52:22.813Z,65.48
2019-02-28T07:53:22.827Z,65.86
2019-02-28T07:54:22.846Z,65.77
2019-02-28T07:55:22.863Z,65.86
2019-02-28T07:56:23.902Z,65.48
2019-02-28T07:57:24.683Z,65.38
2019-02-28T07:58:23.196Z,65.77
2019-02-28T07:59:22.965Z,65.58
2019-02-28T08:00:23.241Z,65.58
2019-02-28T08:01:24.421Z,65.86
2019-02-28T08:02:23.262Z,65.86
2019-02-28T08:03:23.275Z,65.67
2019-02-28T08:04:23.291Z,65.86
2019-02-28T08:05:23.315Z,65.58
2019-02-28T08:06:23.064Z,65.58
2019-02-28T08:07:23.346Z,65.77
2019-02-28T08:08:28.646Z,65.67
2019-02-28T08:09:23.123Z,65.58
2019-02-28T08:10:23.406Z,65.38
2019-02-28T08:11:23.430Z,65.48
2019-02-28T08:12:23.178Z,65.29
2019-02-28T08:13:23.463Z,65.58
2019-02-28T08:14:23.476Z,65.58
2019-02-28T08:15:24.840Z,65.48
2019-02-28T08:16:23.248Z,65.48
2019-02-28T08:17:23.532Z,65.67
2019-02-28T08:18:23.551Z,65.48
2019-02-28T08:19:27.006Z,65.67
2019-02-28T08:20:23.322Z,65.67
2019-02-28T08:21:23.605Z,65.58
2019-02-28T08:22:26.825Z,65.67
2019-02-28T08:23:23.386Z,65.38
2019-02-28T08:24:23.403Z,65.48
2019-02-28T08:25:23.417Z,65.48
2019-02-28T08:26:23.436Z,65.48
2019-02-28T08:27:25.341Z,65.38
2019-02-28T08:28:23.472Z,65.48
2019-02-28T08:29:23.752Z,65.48
2019-02-28T08:30:23.777Z,65.38
2019-02-28T08:31:23.842Z,65.58
2019-02-28T08:32:23.815Z,65.58
2019-02-28T08:33:23.566Z,65.67
2019-02-28T08:34:27.157Z,65.77
2019-02-28T08:35:23.881Z,65.95
2019-02-28T08:36:23.622Z,65.48
2019-02-28T08:37:24.662Z,65.67
2019-02-28T08:38:23.656Z,65.95
2019-02-28T08:39:23.989Z,65.67
2019-02-28T08:40:26.450Z,65.67
2019-02-28T08:41:27.864Z,65.77
2019-02-28T08:42:23.731Z,65.77
2019-02-28T08:43:29.578Z,65.29
2019-02-28T08:44:26.354Z,65.77
2019-02-28T08:45:24.050Z,65.77
2019-02-28T08:46:24.143Z,65.58
2019-02-28T08:47:24.370Z,65.67
2019-02-28T08:48:24.113Z,65.38
2019-02-28T08:49:23.863Z,66.24
2019-02-28T08:50:26.106Z,65.95
2019-02-28T08:51:27.731Z,65.38
2019-02-28T08:52:23.921Z,65.48
2019-02-28T08:53:24.197Z,65.48
2019-02-28T08:54:28.624Z,65.95
2019-02-28T08:55:31.501Z,65.58
2019-02-28T08:56:23.995Z,65.42
2019-02-28T08:57:27.774Z,65.77
2019-02-28T08:58:24.298Z,65.7
2019-02-28T08:59:25.317Z,65.58
2019-02-28T09:00:24.066Z,65.51
2019-02-28T09:01:24.088Z,66.18
2019-02-28T09:02:24.104Z,66.53
2019-02-28T09:03:29.488Z,66.14
2019-02-28T09:04:24.403Z,65.51
2019-02-28T09:05:30.018Z,65.67
2019-02-28T09:06:24.182Z,65.51
2019-02-28T09:07:24.202Z,65.58
2019-02-28T09:08:27.563Z,65.77
2019-02-28T09:09:24.234Z,65.8
2019-02-28T09:10:24.520Z,65.89
2019-02-28T09:11:24.270Z,65.61
2019-02-28T09:12:24.552Z,65.8
2019-02-28T09:13:25.017Z,65.89
2019-02-28T09:14:24.590Z,65.7
2019-02-28T09:15:29.713Z,65.32
2019-02-28T09:16:24.628Z,65.8
2019-02-28T09:17:24.384Z,65.51
2019-02-28T09:18:24.673Z,65.61
2019-02-28T09:19:24.423Z,65.7
2019-02-28T09:20:24.438Z,65.51
2019-02-28T09:21:24.461Z,65.61
2019-02-28T09:22:29.573Z,65.7
2019-02-28T09:23:26.023Z,65.8
2019-02-28T09:24:25.972Z,65.61
2019-02-28T09:25:26.903Z,65.32
2019-02-28T09:26:24.817Z,65.61
2019-02-28T09:27:24.840Z,65.7
2019-02-28T09:28:24.591Z,65.8
2019-02-28T09:29:24.611Z,65.51
2019-02-28T09:30:26.437Z,65.42
2019-02-28T09:31:24.910Z,65.51
2019-02-28T09:32:24.665Z,65.61
2019-02-28T09:33:26.335Z,66.27
2019-02-28T09:34:24.965Z,65.51
2019-02-28T09:35:24.722Z,65.51
2019-02-28T09:36:25.001Z,66.18
2019-02-28T09:37:29.456Z,65.51
2019-02-28T09:38:25.040Z,65.99
2019-02-28T09:39:24.798Z,65.99
2019-02-28T09:40:31.592Z,66.18
2019-02-28T09:41:24.833Z,65.89
2019-02-28T09:42:24.851Z,65.7
2019-02-28T09:43:26.202Z,65.61
2019-02-28T09:44:25.156Z,65.23
2019-02-28T09:45:24.912Z,65.51
2019-02-28T09:46:24.928Z,65.51
2019-02-28T09:47:28.472Z,65.51
2019-02-28T09:48:25.225Z,65.7
2019-02-28T09:49:25.008Z,65.61
2019-02-28T09:50:25.896Z,65.99
2019-02-28T09:51:25.021Z,65.89
2019-02-28T09:52:25.038Z,65.61
2019-02-28T09:53:25.329Z,65.51
2019-02-28T09:54:26.608Z,65.89
2019-02-28T09:55:25.362Z,65.89
2019-02-28T09:56:25.114Z,65.8
2019-02-28T09:57:25.396Z,65.8
2019-02-28T09:58:26.079Z,65.61
2019-02-28T09:59:25.205Z,65.89
2019-02-28T10:00:27.477Z,65.61
2019-02-28T10:01:26.791Z,65.8
2019-02-28T10:02:25.490Z,65.8
2019-02-28T10:03:25.247Z,65.7
2019-02-28T10:04:27.275Z,65.51
2019-02-28T10:05:25.290Z,65.92
2019-02-28T10:06:25.565Z,65.7
2019-02-28T10:07:28.852Z,65.61
2019-02-28T10:08:25.348Z,65.99
2019-02-28T10:09:25.623Z,65.64
2019-02-28T10:10:25.380Z,65.83
2019-02-28T10:11:31.133Z,65.51
2019-02-28T10:12:25.684Z,65.64
2019-02-28T10:13:25.434Z,65.55
2019-02-28T10:14:30.915Z,65.64
2019-02-28T10:15:25.744Z,65.45
2019-02-28T10:16:25.767Z,65.36
2019-02-28T10:17:30.932Z,65.26
2019-02-28T10:18:25.793Z,65.26
2019-02-28T10:19:26.314Z,65.45
2019-02-28T10:20:30.373Z,65.26
2019-02-28T10:21:27.784Z,65.36
2019-02-28T10:22:25.869Z,65.55
2019-02-28T10:23:25.625Z,65.36
2019-02-28T10:24:28.340Z,65.16
2019-02-28T10:25:25.927Z,65.36
2019-02-28T10:26:25.943Z,65.45
2019-02-28T10:27:29.939Z,65.26
2019-02-28T10:28:25.721Z,65.55
2019-02-28T10:29:25.739Z,65.45
2019-02-28T10:30:33.826Z,65.26
2019-02-28T10:31:38.703Z,65.36
2019-02-28T10:32:25.795Z,65.92
2019-02-28T10:33:25.814Z,66.02
2019-02-28T10:34:28.678Z,65.73
2019-02-28T10:35:26.116Z,65.64
2019-02-28T10:36:26.136Z,65.55
2019-02-28T10:37:25.891Z,65.73
2019-02-28T10:38:25.911Z,65.55
2019-02-28T10:39:26.190Z,65.73
2019-02-28T10:40:25.949Z,65.64
2019-02-28T10:41:31.188Z,65.92
2019-02-28T10:42:25.986Z,65.73
2019-02-28T10:43:26.268Z,65.64
2019-02-28T10:44:30.254Z,65.83
2019-02-28T10:45:26.306Z,65.83
2019-02-28T10:46:26.064Z,65.83
2019-02-28T10:47:30.674Z,65.83
2019-02-28T10:48:26.362Z,65.83
2019-02-28T10:49:27.348Z,65.92
2019-02-28T10:50:31.906Z,65.92
2019-02-28T10:51:26.162Z,65.64
2019-02-28T10:52:30.714Z,65.73
2019-02-28T10:53:26.197Z,65.73
2019-02-28T10:54:26.217Z,65.83
2019-02-28T10:55:26.496Z,65.83
2019-02-28T10:56:26.260Z,65.55
2019-02-28T10:57:26.271Z,65.73
2019-02-28T10:58:26.306Z,65.83
2019-02-28T10:59:27.240Z,65.73
2019-02-28T11:00:29.321Z,65.83
2019-02-28T11:01:26.349Z,65.83
2019-02-28T11:02:26.368Z,65.55
2019-02-28T11:03:31.677Z,65.64
2019-02-28T11:04:27.552Z,65.45
2019-02-28T11:05:27.464Z,65.77
2019-02-28T11:06:30.115Z,66.02
2019-02-28T11:07:26.500Z,65.64
2019-02-28T11:08:26.534Z,65.55
2019-02-28T11:09:28.041Z,65.64
2019-02-28T11:10:26.524Z,65.58
2019-02-28T11:11:26.807Z,65.58
2019-02-28T11:12:26.824Z,65.55
2019-02-28T11:13:28.436Z,65.67
2019-02-28T11:14:26.913Z,65.58
2019-02-28T11:15:26.621Z,65.96
2019-02-28T11:16:26.765Z,65.86
2019-02-28T11:17:26.660Z,65.67
2019-02-28T11:18:26.943Z,65.67
2019-02-28T11:19:26.961Z,65.67
2019-02-28T11:20:29.077Z,65.77
2019-02-28T11:21:29.714Z,65.77
2019-02-28T11:22:27.019Z,66.05
2019-02-28T11:23:27.037Z,66.05
2019-02-28T11:24:29.531Z,65.86
2019-02-28T11:25:26.815Z,65.58
2019-02-28T11:26:27.096Z,65.67
2019-02-28T11:27:27.117Z,65.48
2019-02-28T11:28:30.690Z,65.39
2019-02-28T11:29:26.894Z,65.29
2019-02-28T11:30:27.181Z,65.77
2019-02-28T11:31:28.273Z,65.58
2019-02-28T11:32:31.371Z,65.96
2019-02-28T11:33:27.247Z,65.96
2019-02-28T11:34:27.261Z,65.86
2019-02-28T11:35:27.008Z,66.05
2019-02-28T11:36:27.028Z,65.58
2019-02-28T11:37:27.066Z,65.58
2019-02-28T11:38:27.330Z,65.77
2019-02-28T11:39:33.683Z,65.58
2019-02-28T11:40:27.374Z,65.86
2019-02-28T11:41:27.388Z,65.77
2019-02-28T11:42:31.231Z,65.58
2019-02-28T11:43:29.254Z,65.58
2019-02-28T11:44:27.185Z,65.58
2019-02-28T11:45:28.055Z,65.77
2019-02-28T11:46:27.223Z,65.67
2019-02-28T11:47:27.508Z,65.67
2019-02-28T11:48:27.539Z,65.86
2019-02-28T11:49:30.658Z,66.05
2019-02-28T11:50:27.565Z,65.48
2019-02-28T11:51:27.324Z,65.58
2019-02-28T11:52:29.573Z,65.67
2019-02-28T11:53:27.624Z,65.29
2019-02-28T11:54:27.379Z,65.48
2019-02-28T11:55:29.302Z,65.67
2019-02-28T11:56:31.065Z,65.39
2019-02-28T11:57:27.440Z,65.39
2019-02-28T11:58:27.465Z,65.58
2019-02-28T11:59:27.869Z,65.29
2019-02-28T12:00:27.507Z,65.2
2019-02-28T12:01:27.781Z,65.29
2019-02-28T12:02:27.541Z,65.1
2019-02-28T12:03:27.821Z,65.52
2019-02-28T12:04:27.630Z,65.48
2019-02-28T12:05:27.614Z,65.23
2019-02-28T12:06:28.514Z,65.42
2019-02-28T12:07:27.635Z,65.61
2019-02-28T12:08:27.922Z,65.23
2019-02-28T12:09:27.685Z,65.52
2019-02-28T12:10:29.510Z,65.7
2019-02-28T12:11:27.714Z,65.42
2019-02-28T12:12:28.000Z,65.52
2019-02-28T12:13:27.755Z,65.8
2019-02-28T12:14:31.195Z,65.8
2019-02-28T12:15:27.793Z,65.7
2019-02-28T12:16:28.099Z,65.8
2019-02-28T12:17:31.432Z,65.99
2019-02-28T12:18:28.678Z,65.8
2019-02-28T12:19:28.460Z,65.7
2019-02-28T12:20:29.121Z,65.8
2019-02-28T12:21:27.909Z,65.89
2019-02-28T12:22:28.194Z,65.8
2019-02-28T12:23:27.950Z,65.8
2019-02-28T12:24:29.330Z,65.89
2019-02-28T12:25:28.009Z,65.99
2019-02-28T12:26:28.275Z,65.8
2019-02-28T12:27:30.298Z,65.52
2019-02-28T12:28:28.052Z,65.8
2019-02-28T12:29:28.337Z,65.61
2019-02-28T12:30:28.282Z,65.61
2019-02-28T12:31:28.111Z,65.52
2019-02-28T12:32:28.129Z,65.7
2019-02-28T12:33:28.154Z,65.61
2019-02-28T12:34:31.840Z,65.52
2019-02-28T12:35:28.451Z,65.33
2019-02-28T12:36:29.885Z,65.04
2019-02-28T12:37:28.490Z,65.33
2019-02-28T12:38:31.581Z,65.42
2019-02-28T12:39:28.270Z,65.13
2019-02-28T12:40:28.288Z,65.04
2019-02-28T12:41:28.740Z,65.23
2019-02-28T12:42:28.593Z,65.13
2019-02-28T12:43:28.346Z,65.04
2019-02-28T12:44:28.369Z,65.23
2019-02-28T12:45:28.652Z,65.33
2019-02-28T12:46:31.765Z,65.13
2019-02-28T12:47:29.466Z,65.04
2019-02-28T12:48:29.456Z,65.07
2019-02-28T12:49:29.878Z,65.23
2019-02-28T12:50:31.703Z,64.94
2019-02-28T12:51:28.511Z,65.33
2019-02-28T12:52:28.792Z,65.13
2019-02-28T12:53:28.813Z,65.13
2019-02-28T12:54:30.256Z,65.13
2019-02-28T12:55:28.854Z,64.94